LELN/LEN METAR and TAF weather

Enter ICAO airport designator
Station Type Date Time Source
LELN METAR 2020/04/03 23:00 UTC NOAA

LELN 032300Z AUTO 35005KT 9000 NCD 03/02 Q1016


Station Type Date Time Source
LELN Decoded METAR 2020/04/03 23:00 UTC NOAA

Leon / Virgen Del Camino, Spain (LELN) 42-35N 005-39W 914M
Apr 03, 2020 - 07:00 PM EDT / 2020.04.03 2300 UTC
Wind: from the N (350 degrees) at 6 MPH (5 KT):0
Visibility: 5 mile(s):0
Temperature: 37 F (3 C)
Dew Point: 35 F (2 C)
Relative Humidity: 93%
Pressure (altimeter): 30.00 in. Hg (1016 hPa)
ob: LELN 032300Z AUTO 35005KT 9000 NCD 03/02 Q1016
cycle: 23

Station Type Date Time Source
LELN TAF 2018/03/28 12:27 UTC NOAA

TAF LELN 281100Z 2812/2824 27015KT CAVOK
TEMPO 2814/2821 27015G26KT
BECMG 2822/2824 31010KT PROB40
TEMPO 2815/2824 RA BKN030

Example: see airport list